Time,TemperatureF,DewpointF,PressureIn,WindDirection,WindDirectionDegrees,WindSpeedMPH,WindSpeedGustMPH,Humidity,HourlyPrecipIn,Conditions,Clouds,dailyrainin,SoftwareType,DateUTC
2013-12-02 00:01:00,42.5,40.9,30.52,SSW,201,3.5,3.5,94,0.00,CLR,,0.00,WeatherDisplay:10.37,2013-12-02 00:01:00,
2013-12-02 00:06:00,42.8,41.2,30.52,SW,217,3.5,3.5,94,0.00,CLR,,0.00,WeatherDisplay:10.37,2013-12-02 00:06:00,
2013-12-02 00:11:00,43.1,41.5,30.52,SW,214,4.6,4.6,94,0.00,CLR,,0.00,WeatherDisplay:10.37,2013-12-02 00:11:00,
2013-12-02 00:16:00,43.3,41.4,30.52,SSW,211,4.6,4.6,93,0.00,CLR,,0.00,WeatherDisplay:10.37,2013-12-02 00:16:00,
2013-12-02 00:21:00,43.6,41.7,30.52,SSW,210,5.0,5.0,93,0.00,CLR,,0.00,WeatherDisplay:10.37,2013-12-02 00:21:00,
2013-12-02 00:26:00,43.9,42.0,30.52,SSW,210,4.6,4.6,93,0.00,CLR,,0.00,WeatherDisplay:10.37,2013-12-02 00:26:00,
2013-12-02 00:31:00,44.1,41.9,30.52,SW,214,5.0,5.0,92,0.00,CLR,,0.00,WeatherDisplay:10.37,2013-12-02 00:31:00,
2013-12-02 00:36:00,44.3,42.1,30.52,SSW,205,6.9,6.9,92,0.00,CLR,,0.00,WeatherDisplay:10.37,2013-12-02 00:36:00,
2013-12-02 00:41:00,44.4,41.9,30.52,SSW,211,5.8,5.8,91,0.00,CLR,,0.00,WeatherDisplay:10.37,2013-12-02 00:41:00,
2013-12-02 00:46:00,44.7,42.2,30.52,SSW,208,5.0,5.0,91,0.00,CLR,,0.00,WeatherDisplay:10.37,2013-12-02 00:46:00,
2013-12-02 00:51:00,44.9,42.1,30.52,SSW,201,5.8,5.8,90,0.00,CLR,,0.00,WeatherDisplay:10.37,2013-12-02 00:51:00,
2013-12-02 00:56:00,45.1,42.3,30.52,SSW,202,9.2,9.2,90,0.00,CLR,,0.00,WeatherDisplay:10.37,2013-12-02 00:56:00,
2013-12-02 01:01:00,45.2,42.2,30.51,SSW,198,8.1,8.1,89,0.00,CLR,,0.00,WeatherDisplay:10.37,2013-12-02 01:01:00,
2013-12-02 01:06:00,45.3,42.2,30.51,South,189,6.9,6.9,89,0.00,CLR,,0.00,WeatherDisplay:10.37,2013-12-02 01:06:00,
2013-12-02 01:11:00,45.4,42.3,30.51,South,190,5.0,5.0,89,0.00,CLR,,0.00,WeatherDisplay:10.37,2013-12-02 01:11:00,
2013-12-02 01:16:00,45.5,42.4,30.51,SSW,193,5.0,5.0,89,0.00,CLR,,0.00,WeatherDisplay:10.37,2013-12-02 01:16:00,
2013-12-02 01:21:00,45.6,42.5,30.51,SSW,200,9.2,9.2,89,0.00,CLR,,0.00,WeatherDisplay:10.37,2013-12-02 01:21:00,
2013-12-02 01:26:00,45.6,42.5,30.51,South,178,7.0,7.0,89,0.00,CLR,,0.00,WeatherDisplay:10.37,2013-12-02 01:26:00,
2013-12-02 01:31:00,45.7,42.3,30.50,South,186,6.0,6.0,88,0.00,CLR,,0.00,WeatherDisplay:10.37,2013-12-02 01:31:00,
2013-12-02 01:36:00,45.7,42.3,30.50,SSW,202,6.9,6.9,88,0.00,CLR,,0.00,WeatherDisplay:10.37,2013-12-02 01:36:00,
2013-12-02 01:41:00,45.7,42.3,30.50,SSW,199,5.8,5.8,88,0.00,CLR,,0.00,WeatherDisplay:10.37,2013-12-02 01:41:00,
2013-12-02 01:46:00,45.7,42.3,30.50,SSW,198,4.6,4.6,88,0.00,CLR,,0.00,WeatherDisplay:10.37,2013-12-02 01:46:00,
2013-12-02 01:51:00,45.6,42.3,30.50,SSW,199,6.0,6.0,88,0.00,CLR,,0.00,WeatherDisplay:10.37,2013-12-02 01:51:00,
2013-12-02 01:56:00,45.6,42.3,30.50,SSW,200,6.0,6.0,88,0.00,CLR,,0.00,WeatherDisplay:10.37,2013-12-02 01:56:00,
2013-12-02 02:01:00,45.7,42.1,30.50,SSW,194,5.0,5.0,87,0.00,CLR,,0.00,WeatherDisplay:10.37,2013-12-02 02:01:00,
2013-12-02 02:06:00,45.7,42.1,30.50,SSW,200,5.8,5.8,87,0.00,CLR,,0.00,WeatherDisplay:10.37,2013-12-02 02:06:00,
2013-12-02 02:11:00,45.8,42.2,30.50,SW,215,4.0,4.0,87,0.00,CLR,,0.00,WeatherDisplay:10.37,2013-12-02 02:11:00,
2013-12-02 02:16:00,45.9,41.9,30.50,SW,218,3.5,3.5,86,0.00,CLR,,0.00,WeatherDisplay:10.37,2013-12-02 02:16:00,
2013-12-02 02:21:00,45.9,41.9,30.50,SSW,200,8.1,8.1,86,0.00,CLR,,0.00,WeatherDisplay:10.37,2013-12-02 02:21:00,
2013-12-02 02:26:00,46.0,42.0,30.50,SSW,200,6.9,6.9,86,0.00,CLR,,0.00,WeatherDisplay:10.37,2013-12-02 02:26:00,
2013-12-02 02:31:00,46.0,42.0,30.49,SSW,200,5.8,5.8,86,0.00,CLR,,0.00,WeatherDisplay:10.37,2013-12-02 02:31:00,
2013-12-02 02:36:00,46.0,42.0,30.49,SSW,198,4.6,4.6,86,0.00,CLR,,0.00,WeatherDisplay:10.37,2013-12-02 02:36:00,
2013-12-02 02:41:00,46.0,42.0,30.49,SSW,198,4.0,4.0,86,0.00,CLR,,0.00,WeatherDisplay:10.37,2013-12-02 02:41:00,
2013-12-02 02:46:00,46.0,42.0,30.49,SSW,198,5.8,5.8,86,0.00,CLR,,0.00,WeatherDisplay:10.37,2013-12-02 02:46:00,
2013-12-02 02:51:00,46.0,42.0,30.49,SSW,197,4.0,4.0,86,0.00,CLR,,0.00,WeatherDisplay:10.37,2013-12-02 02:51:00,
2013-12-02 02:56:00,46.0,41.7,30.49,SSW,194,3.5,3.5,85,0.00,CLR,,0.00,WeatherDisplay:10.37,2013-12-02 02:56:00,
2013-12-02 03:01:00,46.0,41.7,30.49,SSW,194,4.6,4.6,85,0.00,CLR,,0.00,WeatherDisplay:10.37,2013-12-02 03:01:00,
2013-12-02 03:06:00,46.0,41.7,30.49,SSW,196,5.0,5.0,85,0.00,CLR,,0.00,WeatherDisplay:10.37,2013-12-02 03:06:00,
2013-12-02 03:11:00,46.0,41.7,30.49,SW,223,3.5,3.5,85,0.00,CLR,,0.00,WeatherDisplay:10.37,2013-12-02 03:11:00,
2013-12-02 03:16:00,46.0,41.7,30.49,SW,226,3.5,3.5,85,0.00,CLR,,0.00,WeatherDisplay:10.37,2013-12-02 03:16:00,
2013-12-02 03:21:00,46.0,41.7,30.49,SW,225,3.5,3.5,85,0.00,CLR,,0.00,WeatherDisplay:10.37,2013-12-02 03:21:00,
2013-12-02 03:26:00,46.1,41.8,30.49,SW,217,3.5,3.5,85,0.00,CLR,,0.00,WeatherDisplay:10.37,2013-12-02 03:26:00,
2013-12-02 03:31:00,46.1,41.8,30.48,SW,215,4.0,4.0,85,0.00,CLR,,0.00,WeatherDisplay:10.37,2013-12-02 03:31:00,
2013-12-02 03:36:00,46.1,41.8,30.48,SW,215,4.0,4.0,85,0.00,CLR,,0.00,WeatherDisplay:10.37,2013-12-02 03:36:00,
2013-12-02 03:41:00,46.1,41.8,30.48,SW,215,1.0,0.0,85,0.00,CLR,,0.00,WeatherDisplay:10.37,2013-12-02 03:41:00,
2013-12-02 03:46:00,46.1,41.8,30.48,SW,215,3.5,3.5,85,0.00,CLR,,0.00,WeatherDisplay:10.37,2013-12-02 03:46:00,
2013-12-02 03:51:00,46.1,41.8,30.48,SW,216,3.5,3.5,85,0.00,CLR,,0.00,WeatherDisplay:10.37,2013-12-02 03:51:00,
2013-12-02 03:56:00,46.0,41.7,30.48,SW,215,4.6,4.6,85,0.00,CLR,,0.00,WeatherDisplay:10.37,2013-12-02 03:56:00,
2013-12-02 04:01:00,46.0,41.7,30.46,SW,216,2.3,2.3,85,0.00,CLR,,0.00,WeatherDisplay:10.37,2013-12-02 04:01:00,
2013-12-02 04:06:00,46.0,42.0,30.46,SW,216,2.3,2.3,86,0.00,CLR,,0.00,WeatherDisplay:10.37,2013-12-02 04:06:00,
2013-12-02 04:11:00,46.0,42.0,30.46,SW,215,3.5,3.5,86,0.00,CLR,,0.00,WeatherDisplay:10.37,2013-12-02 04:11:00,
2013-12-02 04:16:00,45.9,41.9,30.45,SW,215,4.0,4.0,86,0.00,CLR,,0.00,WeatherDisplay:10.37,2013-12-02 04:16:00,
2013-12-02 04:21:00,45.9,41.9,30.45,SW,217,3.5,3.5,86,0.00,CLR,,0.00,WeatherDisplay:10.37,2013-12-02 04:21:00,
2013-12-02 04:26:00,45.9,41.9,30.45,SW,216,0.0,0.0,86,0.00,CLR,,0.00,WeatherDisplay:10.37,2013-12-02 04:26:00,
2013-12-02 04:31:00,45.8,41.9,30.44,SW,217,1.2,1.2,86,0.00,CLR,,0.00,WeatherDisplay:10.37,2013-12-02 04:31:00,
2013-12-02 04:36:00,45.8,41.9,30.44,SW,216,4.6,4.6,86,0.00,CLR,,0.00,WeatherDisplay:10.37,2013-12-02 04:36:00,
2013-12-02 04:41:00,45.8,41.9,30.44,SW,216,3.5,3.5,86,0.00,CLR,,0.00,WeatherDisplay:10.37,2013-12-02 04:41:00,
2013-12-02 04:46:00,45.8,41.9,30.44,SW,216,4.0,4.0,86,0.00,CLR,,0.00,WeatherDisplay:10.37,2013-12-02 04:46:00,
2013-12-02 04:51:00,45.8,41.9,30.44,SW,216,4.6,4.6,86,0.00,CLR,,0.00,WeatherDisplay:10.37,2013-12-02 04:51:00,
2013-12-02 04:56:00,45.8,41.9,30.44,SSW,213,3.5,3.5,86,0.00,CLR,,0.00,WeatherDisplay:10.37,2013-12-02 04:56:00,
2013-12-02 05:01:00,45.8,41.9,30.43,SSW,205,5.0,5.0,86,0.00,CLR,,0.00,WeatherDisplay:10.37,2013-12-02 05:01:00,
2013-12-02 05:02:00,45.9,41.9,30.43,SSW,211,6.9,6.9,86,0.00,CLR,,0.00,WeatherDisplay:10.37,2013-12-02 05:02:00,
2013-12-02 05:03:00,45.9,41.9,30.43,SSW,211,4.6,4.6,86,0.00,CLR,,0.00,WeatherDisplay:10.37,2013-12-02 05:03:00,
2013-12-02 05:04:00,45.9,41.9,30.43,SSW,211,3.5,3.5,86,0.00,CLR,,0.00,WeatherDisplay:10.37,2013-12-02 05:04:00,
2013-12-02 05:05:00,45.9,41.9,30.43,SSW,211,2.3,2.3,86,0.00,CLR,,0.00,WeatherDisplay:10.37,2013-12-02 05:05:00,
2013-12-02 05:10:00,46.0,42.0,30.43,SSW,211,2.3,2.3,86,0.00,CLR,,0.00,WeatherDisplay:10.37,2013-12-02 05:10:00,
2013-12-02 05:15:00,46.0,42.0,30.44,SSW,210,3.5,3.5,86,0.00,CLR,,0.00,WeatherDisplay:10.37,2013-12-02 05:15:00,
2013-12-02 05:20:00,46.0,42.0,30.44,SSW,211,1.2,0.0,86,0.00,CLR,,0.00,WeatherDisplay:10.37,2013-12-02 05:20:00,
2013-12-02 05:25:00,45.9,41.9,30.44,SSW,207,4.6,4.6,86,0.00,CLR,,0.00,WeatherDisplay:10.37,2013-12-02 05:25:00,
2013-12-02 05:30:00,45.9,41.9,30.43,SSW,207,5.8,5.8,86,0.00,CLR,,0.00,WeatherDisplay:10.37,2013-12-02 05:30:00,
2013-12-02 05:35:00,46.0,42.0,30.43,SSW,204,4.6,4.6,86,0.00,CLR,,0.00,WeatherDisplay:10.37,2013-12-02 05:35:00,
2013-12-02 05:40:00,46.0,42.0,30.43,SSW,201,4.6,4.6,86,0.00,CLR,,0.00,WeatherDisplay:10.37,2013-12-02 05:40:00,
2013-12-02 05:45:00,46.1,42.1,30.43,SSW,202,6.9,6.9,86,0.00,CLR,,0.00,WeatherDisplay:10.37,2013-12-02 05:45:00,
2013-12-02 05:50:00,46.1,42.1,30.43,SSW,211,6.9,6.9,86,0.00,CLR,,0.00,WeatherDisplay:10.37,2013-12-02 05:50:00,
2013-12-02 05:55:00,46.1,42.1,30.43,SSW,211,3.5,3.5,86,0.00,CLR,,0.00,WeatherDisplay:10.37,2013-12-02 05:55:00,
2013-12-02 06:00:00,46.0,42.0,30.43,SSW,211,3.5,3.5,86,0.00,CLR,,0.00,WeatherDisplay:10.37,2013-12-02 06:00:00,
2013-12-02 06:05:00,46.0,42.0,30.43,SSW,211,3.5,3.5,86,0.00,CLR,,0.00,WeatherDisplay:10.37,2013-12-02 06:05:00,
2013-12-02 06:10:00,46.0,42.0,30.43,SSW,211,2.3,2.3,86,0.00,CLR,,0.00,WeatherDisplay:10.37,2013-12-02 06:10:00,
2013-12-02 06:15:00,46.0,42.0,30.43,SSW,208,4.6,4.6,86,0.00,CLR,,0.00,WeatherDisplay:10.37,2013-12-02 06:15:00,
2013-12-02 06:20:00,45.9,41.9,30.43,SSW,207,5.8,5.8,86,0.00,CLR,,0.00,WeatherDisplay:10.37,2013-12-02 06:20:00,
2013-12-02 06:25:00,46.0,42.0,30.43,SSW,207,5.0,5.0,86,0.00,CLR,,0.00,WeatherDisplay:10.37,2013-12-02 06:25:00,
2013-12-02 06:30:00,46.0,42.0,30.43,SSW,211,6.0,6.0,86,0.00,CLR,,0.00,WeatherDisplay:10.37,2013-12-02 06:30:00,
2013-12-02 06:35:00,46.0,42.0,30.43,SSW,203,8.1,8.1,86,0.00,CLR,,0.00,WeatherDisplay:10.37,2013-12-02 06:35:00,
2013-12-02 06:40:00,46.1,42.1,30.43,SSW,199,4.6,4.6,86,0.00,CLR,,0.00,WeatherDisplay:10.37,2013-12-02 06:40:00,
2013-12-02 06:45:00,46.1,42.1,30.43,SSW,202,10.4,10.4,86,0.00,CLR,,0.00,WeatherDisplay:10.37,2013-12-02 06:45:00,
2013-12-02 06:50:00,46.2,41.9,30.43,SSW,206,12.0,12.0,85,0.00,CLR,,0.00,WeatherDisplay:10.37,2013-12-02 06:50:00,
2013-12-02 06:55:00,46.3,42.0,30.43,South,190,10.4,10.4,85,0.00,CLR,,0.00,WeatherDisplay:10.37,2013-12-02 06:55:00,
2013-12-02 07:00:00,46.3,42.0,30.43,SSW,192,6.9,6.9,85,0.00,CLR,,0.00,WeatherDisplay:10.37,2013-12-02 07:00:00,
2013-12-02 07:05:00,46.3,42.0,30.43,SSW,193,4.6,4.6,85,0.00,CLR,,0.00,WeatherDisplay:10.37,2013-12-02 07:05:00,
2013-12-02 07:10:00,46.3,42.0,30.43,South,185,5.8,5.8,85,0.00,CLR,,0.00,WeatherDisplay:10.37,2013-12-02 07:10:00,
2013-12-02 07:15:00,46.3,42.0,30.43,South,185,4.0,4.0,85,0.00,CLR,,0.00,WeatherDisplay:10.37,2013-12-02 07:15:00,
2013-12-02 07:20:00,46.3,42.0,30.43,South,185,3.5,3.5,85,0.00,CLR,,0.00,WeatherDisplay:10.37,2013-12-02 07:20:00,
2013-12-02 07:25:00,46.3,42.0,30.43,South,189,4.0,4.0,85,0.00,CLR,,0.00,WeatherDisplay:10.37,2013-12-02 07:25:00,
2013-12-02 07:30:00,46.3,42.0,30.43,South,190,3.5,3.5,85,0.00,CLR,,0.00,WeatherDisplay:10.37,2013-12-02 07:30:00,
2013-12-02 07:35:00,46.3,42.0,30.43,SSW,196,5.8,5.8,85,0.00,CLR,,0.00,WeatherDisplay:10.37,2013-12-02 07:35:00,
2013-12-02 07:40:00,46.3,42.0,30.43,SSW,211,5.0,5.0,85,0.00,CLR,,0.00,WeatherDisplay:10.37,2013-12-02 07:40:00,
2013-12-02 07:45:00,46.4,42.1,30.43,SW,228,10.4,10.4,85,0.00,CLR,,0.00,WeatherDisplay:10.37,2013-12-02 07:45:00,
2013-12-02 07:50:00,46.6,42.0,30.43,SSW,197,9.2,9.2,84,0.00,CLR,,0.00,WeatherDisplay:10.37,2013-12-02 07:50:00,
2013-12-02 07:55:00,46.7,42.1,30.43,SSW,192,6.0,6.0,84,0.00,CLR,,0.00,WeatherDisplay:10.37,2013-12-02 07:55:00,
2013-12-02 08:00:00,46.7,42.1,30.43,SSW,207,8.0,8.0,84,0.00,CLR,,0.00,WeatherDisplay:10.37,2013-12-02 08:00:00,
2013-12-02 08:05:00,46.7,42.1,30.43,South,182,5.8,5.8,84,0.00,CLR,,0.00,WeatherDisplay:10.37,2013-12-02 08:05:00,
2013-12-02 08:10:00,46.7,42.1,30.43,South,171,3.5,3.5,84,0.00,CLR,,0.00,WeatherDisplay:10.37,2013-12-02 08:10:00,
2013-12-02 08:15:00,46.7,42.1,30.43,South,182,5.0,5.0,84,0.00,CLR,,0.00,WeatherDisplay:10.37,2013-12-02 08:15:00,
2013-12-02 08:20:00,46.7,42.1,30.43,SSW,194,6.9,6.9,84,0.00,CLR,,0.00,WeatherDisplay:10.37,2013-12-02 08:20:00,
2013-12-02 08:25:00,46.7,42.1,30.43,SSW,199,6.9,6.9,84,0.00,CLR,,0.00,WeatherDisplay:10.37,2013-12-02 08:25:00,
2013-12-02 08:30:00,46.8,41.9,30.42,SSW,209,10.4,10.4,83,0.00,CLR,,0.00,WeatherDisplay:10.37,2013-12-02 08:30:00,
2013-12-02 08:35:00,46.8,41.9,30.42,SSW,211,10.4,10.4,83,0.00,CLR,,0.00,WeatherDisplay:10.37,2013-12-02 08:35:00,
2013-12-02 08:40:00,46.9,42.0,30.42,SW,223,7.0,7.0,83,0.00,CLR,,0.00,WeatherDisplay:10.37,2013-12-02 08:40:00,
2013-12-02 08:45:00,47.0,42.1,30.43,SSW,210,6.0,6.0,83,0.00,CLR,,0.00,WeatherDisplay:10.37,2013-12-02 08:45:00,
2013-12-02 08:50:00,47.0,42.4,30.43,SSW,213,10.4,10.4,84,0.00,CLR,,0.00,WeatherDisplay:10.37,2013-12-02 08:50:00,
2013-12-02 08:55:00,47.1,42.5,30.43,SW,217,5.0,5.0,84,0.00,CLR,,0.00,WeatherDisplay:10.37,2013-12-02 08:55:00,
2013-12-02 09:00:00,47.1,42.5,30.43,SSW,196,10.4,10.4,84,0.00,CLR,,0.00,WeatherDisplay:10.37,2013-12-02 09:00:00,
2013-12-02 09:05:00,47.1,42.5,30.43,SSW,202,11.5,11.5,84,0.00,CLR,,0.00,WeatherDisplay:10.37,2013-12-02 09:05:00,
2013-12-02 09:10:00,47.2,42.6,30.43,SSW,207,7.0,7.0,84,0.00,CLR,,0.00,WeatherDisplay:10.37,2013-12-02 09:10:00,
2013-12-02 09:15:00,47.1,42.8,30.43,WSW,243,8.1,8.1,85,0.00,CLR,,0.00,WeatherDisplay:10.37,2013-12-02 09:15:00,
2013-12-02 09:20:00,47.0,42.7,30.43,SSW,198,10.4,10.4,85,0.00,CLR,,0.00,WeatherDisplay:10.37,2013-12-02 09:20:00,
2013-12-02 09:25:00,46.9,42.9,30.43,South,189,15.0,15.0,86,0.00,CLR,,0.00,WeatherDisplay:10.37,2013-12-02 09:25:00,
2013-12-02 09:30:00,46.9,42.9,30.43,South,184,12.0,12.0,86,0.00,CLR,,0.00,WeatherDisplay:10.37,2013-12-02 09:30:00,
2013-12-02 09:35:00,46.9,43.2,30.43,South,180,11.5,11.5,87,0.00,CLR,,0.00,WeatherDisplay:10.37,2013-12-02 09:35:00,
2013-12-02 09:40:00,46.8,43.4,30.43,SSW,198,5.8,5.8,88,0.00,CLR,,0.00,WeatherDisplay:10.37,2013-12-02 09:40:00,
2013-12-02 09:45:00,46.8,43.4,30.42,South,184,6.9,6.9,88,0.00,CLR,,0.00,WeatherDisplay:10.37,2013-12-02 09:45:00,
2013-12-02 09:50:00,46.7,43.3,30.42,SSW,202,6.9,6.9,88,0.00,CLR,,0.00,WeatherDisplay:10.37,2013-12-02 09:50:00,
2013-12-02 09:55:00,46.8,43.4,30.42,SW,215,7.0,7.0,88,0.00,CLR,,0.00,WeatherDisplay:10.37,2013-12-02 09:55:00,
2013-12-02 10:00:00,46.7,43.3,30.42,SW,232,6.9,6.9,88,0.00,CLR,,0.00,WeatherDisplay:10.37,2013-12-02 10:00:00,
2013-12-02 10:05:00,46.8,43.4,30.42,SSW,210,10.4,10.4,88,0.00,CLR,,0.00,WeatherDisplay:10.37,2013-12-02 10:05:00,
2013-12-02 10:10:00,46.8,43.4,30.42,South,173,10.4,10.4,88,0.00,CLR,,0.00,WeatherDisplay:10.37,2013-12-02 10:10:00,
2013-12-02 10:15:00,46.9,43.8,30.43,SSW,208,10.4,10.4,89,0.00,CLR,,0.00,WeatherDisplay:10.37,2013-12-02 10:15:00,
2013-12-02 10:20:00,47.0,43.9,30.43,SW,224,6.9,6.9,89,0.00,CLR,,0.00,WeatherDisplay:10.37,2013-12-02 10:20:00,
2013-12-02 10:25:00,47.0,43.9,30.43,SW,231,6.9,6.9,89,0.00,CLR,,0.00,WeatherDisplay:10.37,2013-12-02 10:25:00,
2013-12-02 10:30:00,47.0,44.2,30.42,SSW,211,10.4,10.4,90,0.00,CLR,,0.00,WeatherDisplay:10.37,2013-12-02 10:30:00,
2013-12-02 10:35:00,46.9,44.1,30.42,WSW,256,6.9,6.9,90,0.00,CLR,,0.00,WeatherDisplay:10.37,2013-12-02 10:35:00,
2013-12-02 10:40:00,46.8,44.3,30.42,WSW,246,6.9,6.9,91,0.00,CLR,,0.00,WeatherDisplay:10.37,2013-12-02 10:40:00,
2013-12-02 10:45:00,46.7,44.2,30.42,WSW,246,9.0,9.0,91,0.00,CLR,,0.00,WeatherDisplay:10.37,2013-12-02 10:45:00,
2013-12-02 10:50:00,46.6,44.4,30.42,WSW,257,6.0,6.0,92,0.00,CLR,,0.00,WeatherDisplay:10.37,2013-12-02 10:50:00,
2013-12-02 10:55:00,46.5,44.3,30.42,West,263,3.5,3.5,92,0.00,CLR,,0.00,WeatherDisplay:10.37,2013-12-02 10:55:00,
2013-12-02 11:00:00,46.5,44.3,30.41,WSW,240,10.4,10.4,92,0.00,CLR,,0.00,WeatherDisplay:10.37,2013-12-02 11:00:00,
2013-12-02 11:05:00,46.4,44.2,30.41,WSW,254,4.6,4.6,92,0.00,CLR,,0.00,WeatherDisplay:10.37,2013-12-02 11:05:00,
2013-12-02 11:10:00,46.4,44.2,30.41,WSW,242,6.9,6.9,92,0.00,CLR,,0.00,WeatherDisplay:10.37,2013-12-02 11:10:00,
2013-12-02 11:15:00,46.3,44.1,30.40,WSW,241,5.8,5.8,92,0.00,CLR,,0.00,WeatherDisplay:10.37,2013-12-02 11:15:00,
2013-12-02 11:20:00,46.4,44.5,30.40,SW,232,5.8,5.8,93,0.00,CLR,,0.00,WeatherDisplay:10.37,2013-12-02 11:20:00,
2013-12-02 11:25:00,46.4,44.5,30.40,SSW,199,3.5,3.5,93,0.00,CLR,,0.00,WeatherDisplay:10.37,2013-12-02 11:25:00,
2013-12-02 11:30:00,46.5,44.6,30.40,SSW,209,4.6,4.6,93,0.00,CLR,,0.00,WeatherDisplay:10.37,2013-12-02 11:30:00,
2013-12-02 11:35:00,46.6,44.7,30.40,SSW,209,3.5,3.5,93,0.00,CLR,,0.00,WeatherDisplay:10.37,2013-12-02 11:35:00,
2013-12-02 11:40:00,46.7,44.8,30.40,SSW,207,5.8,5.8,93,0.00,CLR,,0.00,WeatherDisplay:10.37,2013-12-02 11:40:00,
2013-12-02 11:45:00,46.8,44.9,30.39,SSW,207,3.5,3.5,93,0.00,CLR,,0.00,WeatherDisplay:10.37,2013-12-02 11:45:00,
2013-12-02 11:51:00,46.9,45.0,30.39,South,170,5.0,5.0,93,0.00,CLR,,0.00,WeatherDisplay:10.37,2013-12-02 11:51:00,
2013-12-02 11:56:00,46.9,45.0,30.39,SSW,206,6.0,6.0,93,0.00,CLR,,0.00,WeatherDisplay:10.37,2013-12-02 11:56:00,
2013-12-02 12:01:00,47.0,44.8,30.38,SW,217,4.6,4.6,92,0.00,CLR,,0.00,WeatherDisplay:10.37,2013-12-02 12:01:00,
2013-12-02 12:06:00,47.0,44.8,30.38,SW,217,4.6,4.6,92,0.00,CLR,,0.00,WeatherDisplay:10.37,2013-12-02 12:06:00,
2013-12-02 12:11:00,47.1,44.9,30.38,SW,217,4.6,4.6,92,0.00,CLR,,0.00,WeatherDisplay:10.37,2013-12-02 12:11:00,
2013-12-02 12:16:00,47.2,45.0,30.38,SSW,206,5.8,5.8,92,0.00,CLR,,0.00,WeatherDisplay:10.37,2013-12-02 12:16:00,
2013-12-02 12:21:00,47.3,45.1,30.38,SSW,207,3.5,3.5,92,0.00,CLR,,0.00,WeatherDisplay:10.37,2013-12-02 12:21:00,
2013-12-02 12:26:00,47.4,45.2,30.38,SSW,210,6.0,6.0,92,0.00,CLR,,0.00,WeatherDisplay:10.37,2013-12-02 12:26:00,
2013-12-02 12:31:00,47.4,45.2,30.37,SW,215,4.6,4.6,92,0.00,CLR,,0.00,WeatherDisplay:10.37,2013-12-02 12:31:00,
2013-12-02 12:36:00,47.4,44.9,30.37,SW,214,5.8,5.8,91,0.00,CLR,,0.00,WeatherDisplay:10.37,2013-12-02 12:36:00,
2013-12-02 12:41:00,47.4,44.9,30.37,SSW,213,6.0,6.0,91,0.00,CLR,,0.00,WeatherDisplay:10.37,2013-12-02 12:41:00,
2013-12-02 12:46:00,47.5,45.0,30.36,SSW,206,8.1,8.1,91,0.00,CLR,,0.00,WeatherDisplay:10.37,2013-12-02 12:46:00,
2013-12-02 12:51:00,47.6,45.1,30.36,West,260,10.4,10.4,91,0.00,CLR,,0.00,WeatherDisplay:10.37,2013-12-02 12:51:00,
2013-12-02 12:56:00,47.7,44.9,30.36,SW,223,12.7,12.7,90,0.00,CLR,,0.00,WeatherDisplay:10.37,2013-12-02 12:56:00,
2013-12-02 13:01:00,47.7,44.9,30.36,SW,215,10.4,10.4,90,0.00,CLR,,0.00,WeatherDisplay:10.37,2013-12-02 13:01:00,
2013-12-02 13:06:00,47.8,44.7,30.36,WSW,242,8.1,8.1,89,0.00,CLR,,0.00,WeatherDisplay:10.37,2013-12-02 13:06:00,
2013-12-02 13:11:00,47.8,44.7,30.36,WSW,255,9.2,9.2,89,0.00,CLR,,0.00,WeatherDisplay:10.37,2013-12-02 13:11:00,
2013-12-02 13:16:00,47.8,44.7,30.35,West,259,12.0,12.0,89,0.00,CLR,,0.00,WeatherDisplay:10.37,2013-12-02 13:16:00,
2013-12-02 13:21:00,47.8,44.7,30.35,SW,229,12.7,12.7,89,0.00,CLR,,0.00,WeatherDisplay:10.37,2013-12-02 13:21:00,
2013-12-02 13:26:00,47.8,44.7,30.35,SW,215,6.9,6.9,89,0.00,CLR,,0.00,WeatherDisplay:10.37,2013-12-02 13:26:00,
2013-12-02 13:31:00,47.8,44.4,30.35,West,279,9.2,9.2,88,0.00,CLR,,0.00,WeatherDisplay:10.37,2013-12-02 13:31:00,
2013-12-02 13:36:00,47.8,44.4,30.35,WNW,288,5.8,5.8,88,0.00,CLR,,0.00,WeatherDisplay:10.37,2013-12-02 13:36:00,
2013-12-02 13:41:00,47.9,44.5,30.35,West,265,7.0,7.0,88,0.00,CLR,,0.00,WeatherDisplay:10.37,2013-12-02 13:41:00,
2013-12-02 13:46:00,47.8,44.4,30.34,West,276,10.4,10.4,88,0.00,CLR,,0.00,WeatherDisplay:10.37,2013-12-02 13:46:00,
2013-12-02 13:51:00,47.8,44.4,30.34,WNW,294,6.0,6.0,88,0.00,CLR,,0.00,WeatherDisplay:10.37,2013-12-02 13:51:00,
2013-12-02 13:56:00,47.7,44.0,30.34,SSW,213,10.0,10.0,87,0.00,CLR,,0.00,WeatherDisplay:10.37,2013-12-02 13:56:00,
2013-12-02 14:01:00,47.6,43.9,30.33,SW,236,11.5,11.5,87,0.00,CLR,,0.00,WeatherDisplay:10.37,2013-12-02 14:01:00,
2013-12-02 14:06:00,47.4,43.7,30.33,SW,215,16.0,16.0,87,0.00,CLR,,0.00,WeatherDisplay:10.37,2013-12-02 14:06:00,
2013-12-02 14:11:00,47.3,43.3,30.33,WSW,245,11.5,11.5,86,0.00,CLR,,0.00,WeatherDisplay:10.37,2013-12-02 14:11:00,
2013-12-02 14:16:00,47.2,43.2,30.33,WSW,255,17.3,17.3,86,0.00,CLR,,0.00,WeatherDisplay:10.37,2013-12-02 14:16:00,
2013-12-02 14:21:00,47.2,43.2,30.33,WSW,258,9.2,9.2,86,0.00,CLR,,0.00,WeatherDisplay:10.37,2013-12-02 14:21:00,
2013-12-02 14:26:00,47.1,43.1,30.33,WSW,258,6.9,6.9,86,0.00,CLR,,0.00,WeatherDisplay:10.37,2013-12-02 14:26:00,
2013-12-02 14:31:00,47.1,43.4,30.32,West,265,4.6,4.6,87,0.00,CLR,,0.00,WeatherDisplay:10.37,2013-12-02 14:31:00,
2013-12-02 14:36:00,47.0,43.0,30.32,West,261,10.4,10.4,86,0.00,CLR,,0.00,WeatherDisplay:10.37,2013-12-02 14:36:00,
2013-12-02 14:41:00,47.0,43.0,30.32,SSW,213,10.4,10.4,86,0.00,CLR,,0.00,WeatherDisplay:10.37,2013-12-02 14:41:00,
2013-12-02 14:46:00,46.9,42.6,30.32,SW,223,8.0,8.0,85,0.00,CLR,,0.00,WeatherDisplay:10.37,2013-12-02 14:46:00,
2013-12-02 14:51:00,46.8,42.5,30.32,WSW,237,11.0,11.0,85,0.00,CLR,,0.00,WeatherDisplay:10.37,2013-12-02 14:51:00,
2013-12-02 14:56:00,46.7,42.4,30.32,WSW,240,9.2,9.2,85,0.00,CLR,,0.00,WeatherDisplay:10.37,2013-12-02 14:56:00,
2013-12-02 15:01:00,46.7,42.4,30.32,WNW,282,9.2,9.2,85,0.00,CLR,,0.00,WeatherDisplay:10.37,2013-12-02 15:01:00,
2013-12-02 15:06:00,46.6,42.3,30.32,West,261,5.8,5.8,85,0.00,CLR,,0.00,WeatherDisplay:10.37,2013-12-02 15:06:00,
2013-12-02 15:11:00,46.5,42.2,30.32,SW,228,3.5,3.5,85,0.00,CLR,,0.00,WeatherDisplay:10.37,2013-12-02 15:11:00,
2013-12-02 15:16:00,46.4,42.1,30.32,WNW,284,6.9,6.9,85,0.00,CLR,,0.00,WeatherDisplay:10.37,2013-12-02 15:16:00,
2013-12-02 15:21:00,46.3,42.0,30.32,WNW,293,7.0,7.0,85,0.00,CLR,,0.00,WeatherDisplay:10.37,2013-12-02 15:21:00,
2013-12-02 15:26:00,46.2,41.9,30.32,WNW,292,4.6,4.6,85,0.00,CLR,,0.00,WeatherDisplay:10.37,2013-12-02 15:26:00,
2013-12-02 15:31:00,46.2,41.9,30.32,West,280,5.8,5.8,85,0.00,CLR,,0.00,WeatherDisplay:10.37,2013-12-02 15:31:00,
2013-12-02 15:36:00,46.0,41.7,30.32,WSW,248,5.8,5.8,85,0.00,CLR,,0.00,WeatherDisplay:10.37,2013-12-02 15:36:00,
2013-12-02 15:41:00,45.9,41.6,30.32,WSW,246,11.5,11.5,85,0.00,CLR,,0.00,WeatherDisplay:10.37,2013-12-02 15:41:00,
2013-12-02 15:46:00,45.9,41.3,30.32,SSW,199,11.5,11.5,84,0.00,CLR,,0.00,WeatherDisplay:10.37,2013-12-02 15:46:00,
2013-12-02 15:51:00,45.9,41.0,30.32,SW,229,13.0,13.0,83,0.00,CLR,,0.00,WeatherDisplay:10.37,2013-12-02 15:51:00,
2013-12-02 15:56:00,45.9,41.0,30.32,WSW,247,11.5,11.5,83,0.00,CLR,,0.00,WeatherDisplay:10.37,2013-12-02 15:56:00,
2013-12-02 16:01:00,45.9,41.0,30.31,WSW,246,11.5,11.5,83,0.00,CLR,,0.00,WeatherDisplay:10.37,2013-12-02 16:01:00,
2013-12-02 16:06:00,45.9,40.4,30.31,SW,224,16.1,16.1,81,0.00,CLR,,0.00,WeatherDisplay:10.37,2013-12-02 16:06:00,
2013-12-02 16:11:00,45.9,40.4,30.31,SW,215,11.5,11.5,81,0.00,CLR,,0.00,WeatherDisplay:10.37,2013-12-02 16:11:00,
2013-12-02 16:16:00,45.8,40.6,30.31,SSW,201,16.1,16.1,82,0.00,CLR,,0.00,WeatherDisplay:10.37,2013-12-02 16:16:00,
2013-12-02 16:21:00,45.8,40.6,30.31,South,173,12.0,12.0,82,0.00,CLR,,0.00,WeatherDisplay:10.37,2013-12-02 16:21:00,
2013-12-02 16:26:00,45.7,40.5,30.31,SW,226,11.5,11.5,82,0.00,CLR,,0.00,WeatherDisplay:10.37,2013-12-02 16:26:00,
2013-12-02 16:31:00,45.6,40.4,30.31,WSW,238,6.9,6.9,82,0.00,CLR,,0.00,WeatherDisplay:10.37,2013-12-02 16:31:00,
2013-12-02 16:36:00,45.6,40.4,30.31,SW,223,10.4,10.4,82,0.00,CLR,,0.00,WeatherDisplay:10.37,2013-12-02 16:36:00,
2013-12-02 16:41:00,45.5,40.6,30.31,West,267,4.0,4.0,83,0.00,CLR,,0.00,WeatherDisplay:10.37,2013-12-02 16:41:00,
2013-12-02 16:46:00,45.5,40.6,30.32,SW,215,10.0,10.0,83,0.00,CLR,,0.00,WeatherDisplay:10.37,2013-12-02 16:46:00,
2013-12-02 16:51:00,45.4,40.5,30.32,West,280,10.4,10.4,83,0.00,CLR,,0.00,WeatherDisplay:10.37,2013-12-02 16:51:00,
2013-12-02 16:56:00,45.4,40.5,30.32,WSW,242,5.8,5.8,83,0.00,CLR,,0.00,WeatherDisplay:10.37,2013-12-02 16:56:00,
2013-12-02 17:01:00,45.4,40.5,30.32,West,259,10.4,10.4,83,0.00,CLR,,0.00,WeatherDisplay:10.37,2013-12-02 17:01:00,
2013-12-02 17:06:00,45.4,40.5,30.32,SW,223,5.8,5.8,83,0.00,CLR,,0.00,WeatherDisplay:10.37,2013-12-02 17:06:00,
2013-12-02 17:11:00,45.4,40.5,30.32,SW,232,7.0,7.0,83,0.00,CLR,,0.00,WeatherDisplay:10.37,2013-12-02 17:11:00,
2013-12-02 17:16:00,45.4,40.5,30.32,SSW,213,9.2,9.2,83,0.00,CLR,,0.00,WeatherDisplay:10.37,2013-12-02 17:16:00,
2013-12-02 17:21:00,45.4,40.5,30.32,SW,224,9.2,9.2,83,0.00,CLR,,0.00,WeatherDisplay:10.37,2013-12-02 17:21:00,
2013-12-02 17:26:00,45.3,40.4,30.32,SSW,211,9.2,9.2,83,0.00,CLR,,0.00,WeatherDisplay:10.37,2013-12-02 17:26:00,
2013-12-02 17:31:00,45.3,40.4,30.32,SW,218,7.0,7.0,83,0.00,CLR,,0.00,WeatherDisplay:10.37,2013-12-02 17:31:00,
2013-12-02 17:36:00,45.2,40.7,30.32,SW,224,6.9,6.9,84,0.00,CLR,,0.00,WeatherDisplay:10.37,2013-12-02 17:36:00,
2013-12-02 17:41:00,45.2,40.7,30.32,SW,236,9.2,9.2,84,0.00,CLR,,0.00,WeatherDisplay:10.37,2013-12-02 17:41:00,
2013-12-02 17:46:00,45.2,40.7,30.31,SSW,201,9.2,9.2,84,0.00,CLR,,0.00,WeatherDisplay:10.37,2013-12-02 17:46:00,
2013-12-02 17:51:00,45.2,40.7,30.31,SW,232,5.0,5.0,84,0.00,CLR,,0.00,WeatherDisplay:10.37,2013-12-02 17:51:00,
2013-12-02 17:56:00,45.1,40.6,30.31,WSW,254,11.5,11.5,84,0.00,CLR,,0.00,WeatherDisplay:10.37,2013-12-02 17:56:00,
2013-12-02 18:01:00,45.1,40.6,30.31,SW,221,11.5,11.5,84,0.00,CLR,,0.00,WeatherDisplay:10.37,2013-12-02 18:01:00,
2013-12-02 18:06:00,45.2,40.7,30.31,WSW,238,9.2,9.2,84,0.00,CLR,,0.00,WeatherDisplay:10.37,2013-12-02 18:06:00,
2013-12-02 18:11:00,45.2,40.7,30.31,SSW,211,11.5,11.5,84,0.00,CLR,,0.00,WeatherDisplay:10.37,2013-12-02 18:11:00,
2013-12-02 18:16:00,45.2,40.7,30.31,SW,223,11.5,11.5,84,0.00,CLR,,0.00,WeatherDisplay:10.37,2013-12-02 18:16:00,
2013-12-02 18:21:00,45.2,40.7,30.31,SSW,196,12.7,12.7,84,0.00,CLR,,0.00,WeatherDisplay:10.37,2013-12-02 18:21:00,
2013-12-02 18:26:00,45.2,40.7,30.31,SSW,197,11.5,11.5,84,0.00,CLR,,0.00,WeatherDisplay:10.37,2013-12-02 18:26:00,
2013-12-02 18:31:00,45.1,40.6,30.30,SSW,193,11.0,11.0,84,0.00,CLR,,0.00,WeatherDisplay:10.37,2013-12-02 18:31:00,
2013-12-02 18:36:00,45.1,40.6,30.30,SW,220,11.5,11.5,84,0.00,CLR,,0.00,WeatherDisplay:10.37,2013-12-02 18:36:00,
2013-12-02 18:41:00,45.1,40.6,30.30,South,179,10.0,10.0,84,0.00,CLR,,0.00,WeatherDisplay:10.37,2013-12-02 18:41:00,
2013-12-02 18:46:00,45.1,40.6,30.30,SW,214,10.0,10.0,84,0.00,CLR,,0.00,WeatherDisplay:10.37,2013-12-02 18:46:00,
2013-12-02 18:51:00,45.1,40.6,30.30,South,190,8.1,8.1,84,0.00,CLR,,0.00,WeatherDisplay:10.37,2013-12-02 18:51:00,
2013-12-02 18:56:00,45.2,40.7,30.30,South,190,11.5,11.5,84,0.00,CLR,,0.00,WeatherDisplay:10.37,2013-12-02 18:56:00,
2013-12-02 19:01:00,45.2,40.7,30.30,South,185,11.5,11.5,84,0.00,CLR,,0.00,WeatherDisplay:10.37,2013-12-02 19:01:00,
2013-12-02 19:06:00,45.2,41.0,30.30,South,188,8.1,8.1,85,0.00,CLR,,0.00,WeatherDisplay:10.37,2013-12-02 19:06:00,
2013-12-02 19:11:00,45.2,41.0,30.30,South,190,11.0,11.0,85,0.00,CLR,,0.00,WeatherDisplay:10.37,2013-12-02 19:11:00,
2013-12-02 19:16:00,45.2,41.0,30.30,South,188,11.5,11.5,85,0.00,CLR,,0.00,WeatherDisplay:10.37,2013-12-02 19:16:00,
2013-12-02 19:21:00,45.2,41.0,30.30,SSW,202,9.2,9.2,85,0.00,CLR,,0.00,WeatherDisplay:10.37,2013-12-02 19:21:00,
2013-12-02 19:26:00,45.2,41.0,30.30,WSW,250,11.5,11.5,85,0.00,CLR,,0.00,WeatherDisplay:10.37,2013-12-02 19:26:00,
2013-12-02 19:31:00,45.2,41.0,30.30,SW,223,6.9,8.1,85,0.00,CLR,,0.00,WeatherDisplay:10.37,2013-12-02 19:31:00,
2013-12-02 19:36:00,45.3,41.1,30.30,SSW,194,12.7,12.7,85,0.00,CLR,,0.00,WeatherDisplay:10.37,2013-12-02 19:36:00,
2013-12-02 19:41:00,45.4,41.2,30.30,SW,217,11.5,11.5,85,0.00,CLR,,0.00,WeatherDisplay:10.37,2013-12-02 19:41:00,
2013-12-02 19:46:00,45.5,41.3,30.29,SW,215,9.0,9.0,85,0.00,CLR,,0.00,WeatherDisplay:10.37,2013-12-02 19:46:00,
2013-12-02 19:51:00,45.6,41.4,30.29,SSW,213,10.4,10.4,85,0.00,CLR,,0.00,WeatherDisplay:10.37,2013-12-02 19:51:00,
2013-12-02 19:56:00,45.6,41.4,30.29,WSW,242,10.0,10.0,85,0.00,CLR,,0.00,WeatherDisplay:10.37,2013-12-02 19:56:00,
2013-12-02 20:01:00,45.6,41.4,30.29,SW,219,6.9,6.9,85,0.00,CLR,,0.00,WeatherDisplay:10.37,2013-12-02 20:01:00,
2013-12-02 20:06:00,45.7,41.4,30.29,WSW,238,6.9,6.9,85,0.00,CLR,,0.00,WeatherDisplay:10.37,2013-12-02 20:06:00,
2013-12-02 20:11:00,45.6,41.4,30.29,SW,214,9.2,9.2,85,0.00,CLR,,0.00,WeatherDisplay:10.37,2013-12-02 20:11:00,
2013-12-02 20:16:00,45.7,41.4,30.29,SW,219,6.0,6.0,85,0.00,CLR,,0.00,WeatherDisplay:10.37,2013-12-02 20:16:00,
2013-12-02 20:21:00,45.7,41.4,30.29,WSW,238,5.0,5.7,85,0.00,CLR,,0.00,WeatherDisplay:10.37,2013-12-02 20:21:00,
2013-12-02 20:26:00,45.8,41.5,30.29,SSW,194,12.7,12.7,85,0.00,CLR,,0.00,WeatherDisplay:10.37,2013-12-02 20:26:00,
2013-12-02 20:31:00,45.8,41.5,30.29,SSW,202,11.5,11.5,85,0.00,CLR,,0.00,WeatherDisplay:10.37,2013-12-02 20:31:00,
2013-12-02 20:36:00,45.8,41.9,30.29,SSW,211,13.8,13.8,86,0.00,CLR,,0.00,WeatherDisplay:10.37,2013-12-02 20:36:00,
2013-12-02 20:41:00,45.8,41.9,30.29,South,184,15.0,15.0,86,0.00,CLR,,0.00,WeatherDisplay:10.37,2013-12-02 20:41:00,
2013-12-02 20:46:00,45.8,41.9,30.27,SW,225,17.3,17.3,86,0.00,CLR,,0.00,WeatherDisplay:10.37,2013-12-02 20:46:00,
2013-12-02 20:51:00,45.8,41.9,30.27,SSW,195,21.9,21.9,86,0.00,CLR,,0.00,WeatherDisplay:10.37,2013-12-02 20:51:00,
2013-12-02 20:56:00,45.7,41.8,30.27,South,184,17.3,17.3,86,0.00,CLR,,0.00,WeatherDisplay:10.37,2013-12-02 20:56:00,
2013-12-02 21:01:00,45.7,41.8,30.27,SSW,198,18.4,18.4,86,0.00,CLR,,0.00,WeatherDisplay:10.37,2013-12-02 21:01:00,
2013-12-02 21:06:00,45.6,41.7,30.27,SSW,213,19.6,19.6,86,0.00,CLR,,0.00,WeatherDisplay:10.37,2013-12-02 21:06:00,
2013-12-02 21:11:00,45.6,42.0,30.27,SW,218,19.6,19.6,87,0.00,CLR,,0.00,WeatherDisplay:10.37,2013-12-02 21:11:00,
2013-12-02 21:16:00,45.6,42.0,30.27,WSW,258,15.0,15.0,87,0.00,CLR,,0.00,WeatherDisplay:10.37,2013-12-02 21:16:00,
2013-12-02 21:21:00,45.7,42.1,30.27,South,173,13.8,13.8,87,0.00,CLR,,0.00,WeatherDisplay:10.37,2013-12-02 21:21:00,
2013-12-02 21:26:00,45.7,42.1,30.27,SW,227,13.0,13.0,87,0.00,CLR,,0.00,WeatherDisplay:10.37,2013-12-02 21:26:00,
2013-12-02 21:31:00,45.8,42.2,30.27,SSW,202,12.7,12.7,87,0.00,CLR,,0.00,WeatherDisplay:10.37,2013-12-02 21:31:00,
2013-12-02 21:36:00,45.8,41.9,30.27,SSW,207,12.7,12.7,86,0.00,CLR,,0.00,WeatherDisplay:10.37,2013-12-02 21:36:00,
2013-12-02 21:41:00,45.8,41.9,30.27,SSW,207,15.0,15.0,86,0.00,CLR,,0.00,WeatherDisplay:10.37,2013-12-02 21:41:00,
2013-12-02 21:46:00,45.9,41.9,30.27,South,188,16.0,16.0,86,0.00,CLR,,0.00,WeatherDisplay:10.37,2013-12-02 21:46:00,
2013-12-02 21:51:00,45.9,41.9,30.27,South,181,13.0,13.0,86,0.00,CLR,,0.00,WeatherDisplay:10.37,2013-12-02 21:51:00,
2013-12-02 21:56:00,45.9,41.9,30.27,SSW,211,14.0,14.0,86,0.00,CLR,,0.00,WeatherDisplay:10.37,2013-12-02 21:56:00,
2013-12-02 22:01:00,45.9,41.9,30.27,SW,225,13.8,13.8,86,0.00,CLR,,0.00,WeatherDisplay:10.37,2013-12-02 22:01:00,
2013-12-02 22:06:00,45.9,41.9,30.27,SSW,208,12.7,12.7,86,0.00,CLR,,0.00,WeatherDisplay:10.37,2013-12-02 22:06:00,
2013-12-02 22:11:00,46.0,42.0,30.27,SW,234,13.8,13.8,86,0.00,CLR,,0.00,WeatherDisplay:10.37,2013-12-02 22:11:00,
2013-12-02 22:16:00,46.0,42.3,30.27,South,180,12.7,12.7,87,0.00,CLR,,0.00,WeatherDisplay:10.37,2013-12-02 22:16:00,
2013-12-02 22:21:00,45.9,42.2,30.27,SSW,213,15.0,15.0,87,0.00,CLR,,0.00,WeatherDisplay:10.37,2013-12-02 22:21:00,
2013-12-02 22:26:00,45.9,42.2,30.27,SSW,202,16.1,16.1,87,0.00,CLR,,0.00,WeatherDisplay:10.37,2013-12-02 22:26:00,
2013-12-02 22:31:00,46.0,42.3,30.27,SSW,212,17.3,17.3,87,0.00,CLR,,0.00,WeatherDisplay:10.37,2013-12-02 22:31:00,
2013-12-02 22:36:00,46.0,42.3,30.27,SW,223,16.1,16.1,87,0.00,CLR,,0.00,WeatherDisplay:10.37,2013-12-02 22:36:00,
2013-12-02 22:41:00,46.0,42.3,30.27,South,185,15.0,15.0,87,0.00,CLR,,0.00,WeatherDisplay:10.37,2013-12-02 22:41:00,
2013-12-02 22:46:00,46.1,42.7,30.26,WSW,244,15.0,15.0,88,0.00,CLR,,0.00,WeatherDisplay:10.37,2013-12-02 22:46:00,
2013-12-02 22:51:00,46.2,42.5,30.26,SSW,213,13.8,13.8,87,0.00,CLR,,0.00,WeatherDisplay:10.37,2013-12-02 22:51:00,
2013-12-02 22:56:00,46.3,42.6,30.26,South,190,13.8,13.8,87,0.00,CLR,,0.00,WeatherDisplay:10.37,2013-12-02 22:56:00,
2013-12-02 23:01:00,46.3,42.6,30.27,SSW,204,17.3,17.3,87,0.00,CLR,,0.00,WeatherDisplay:10.37,2013-12-02 23:01:00,
2013-12-02 23:06:00,46.4,42.7,30.27,SSW,197,12.7,12.7,87,0.00,CLR,,0.00,WeatherDisplay:10.37,2013-12-02 23:06:00,
2013-12-02 23:11:00,46.5,42.8,30.27,SW,234,18.4,18.4,87,0.00,CLR,,0.00,WeatherDisplay:10.37,2013-12-02 23:11:00,
2013-12-02 23:16:00,46.5,42.8,30.27,South,169,13.8,13.8,87,0.00,CLR,,0.00,WeatherDisplay:10.37,2013-12-02 23:16:00,
2013-12-02 23:21:00,46.5,42.8,30.27,South,178,16.1,16.1,87,0.00,CLR,,0.00,WeatherDisplay:10.37,2013-12-02 23:21:00,
2013-12-02 23:26:00,46.5,42.8,30.27,SSW,192,16.0,16.0,87,0.00,CLR,,0.00,WeatherDisplay:10.37,2013-12-02 23:26:00,
2013-12-02 23:31:00,46.5,42.8,30.27,WSW,240,12.7,12.7,87,0.00,CLR,,0.00,WeatherDisplay:10.37,2013-12-02 23:31:00,
2013-12-02 23:36:00,46.5,42.8,30.27,SSW,209,16.1,16.1,87,0.00,CLR,,0.00,WeatherDisplay:10.37,2013-12-02 23:36:00,
2013-12-02 23:41:00,46.5,42.8,30.27,SSW,198,12.7,12.7,87,0.00,CLR,,0.00,WeatherDisplay:10.37,2013-12-02 23:41:00,
2013-12-02 23:46:00,46.4,42.7,30.26,South,191,11.5,11.5,87,0.00,CLR,,0.00,WeatherDisplay:10.37,2013-12-02 23:46:00,
2013-12-02 23:51:00,46.4,43.0,30.26,SSW,196,11.5,11.5,88,0.00,CLR,,0.00,WeatherDisplay:10.37,2013-12-02 23:51:00,
2013-12-02 23:56:00,46.4,43.0,30.26,South,189,11.5,11.5,88,0.00,CLR,,0.00,WeatherDisplay:10.37,2013-12-02 23:56:00,